Terminal Aerodrome Forecast
Issued by NWS

Home | Current Version | Previous Version | Text Only | Print | Product List | Glossary On
Versions: 1 2 3 4 5 6 7 8 9 10 11 12 13 14 15 16 17
000
FTUS45 KABQ 011600 AAA
TAFROW
TAF AMD
KROW 011606Z 0116/0212 16006KT 4SM BR OVC003
      TEMPO 0116/0118 2SM BR OVC002
     FM011900 16006KT P6SM BKN007
     FM012300 15008KT P6SM SCT009
     FM020200 08007KT 4SM BR OVC004=

USA.gov is the U.S. government's official web portal to all federal, state and local government web resources and services.